sensor_id;sensor_type;location;lat;lon;timestamp;P1;durP1;ratioP1;P2;durP2;ratioP2
10795;SDS011;5450;42.994;23.372;2022-11-20T00:01:34;9.10;;;8.20;;
10795;SDS011;5450;42.994;23.372;2022-11-20T00:04:01;9.17;;;8.30;;
10795;SDS011;5450;42.994;23.372;2022-11-20T00:06:28;8.20;;;7.40;;
10795;SDS011;5450;42.994;23.372;2022-11-20T00:08:56;10.10;;;7.03;;
10795;SDS011;5450;42.994;23.372;2022-11-20T00:11:27;7.37;;;6.63;;
10795;SDS011;5450;42.994;23.372;2022-11-20T00:13:57;7.17;;;6.33;;
10795;SDS011;5450;42.994;23.372;2022-11-20T00:16:30;8.57;;;7.03;;
10795;SDS011;5450;42.994;23.372;2022-11-20T00:19:00;6.63;;;5.77;;
10795;SDS011;5450;42.994;23.372;2022-11-20T00:21:27;5.33;;;4.87;;
10795;SDS011;5450;42.994;23.372;2022-11-20T00:23:55;5.30;;;3.70;;
10795;SDS011;5450;42.994;23.372;2022-11-20T00:26:24;4.67;;;4.27;;
10795;SDS011;5450;42.994;23.372;2022-11-20T00:28:54;2.70;;;2.50;;
10795;SDS011;5450;42.994;23.372;2022-11-20T00:31:23;2.67;;;2.20;;
10795;SDS011;5450;42.994;23.372;2022-11-20T00:33:51;2.73;;;2.20;;
10795;SDS011;5450;42.994;23.372;2022-11-20T00:36:19;4.70;;;2.00;;
10795;SDS011;5450;42.994;23.372;2022-11-20T00:38:50;3.50;;;1.90;;
10795;SDS011;5450;42.994;23.372;2022-11-20T00:41:19;3.03;;;1.80;;
10795;SDS011;5450;42.994;23.372;2022-11-20T00:43:47;4.20;;;2.73;;
10795;SDS011;5450;42.994;23.372;2022-11-20T00:46:16;2.47;;;1.47;;
10795;SDS011;5450;42.994;23.372;2022-11-20T00:48:45;1.37;;;1.33;;
10795;SDS011;5450;42.994;23.372;2022-11-20T00:51:12;1.67;;;1.27;;
10795;SDS011;5450;42.994;23.372;2022-11-20T00:53:41;4.10;;;2.00;;
10795;SDS011;5450;42.994;23.372;2022-11-20T00:56:10;2.20;;;1.60;;
10795;SDS011;5450;42.994;23.372;2022-11-20T00:58:38;3.53;;;1.50;;
10795;SDS011;5450;42.994;23.372;2022-11-20T01:01:07;1.80;;;1.27;;
10795;SDS011;5450;42.994;23.372;2022-11-20T01:03:38;1.60;;;1.43;;
10795;SDS011;5450;42.994;23.372;2022-11-20T01:06:07;2.33;;;1.60;;
10795;SDS011;5450;42.994;23.372;2022-11-20T01:08:36;2.93;;;1.13;;
10795;SDS011;5450;42.994;23.372;2022-11-20T01:11:05;1.90;;;1.80;;
10795;SDS011;5450;42.994;23.372;2022-11-20T01:13:33;3.97;;;1.27;;
10795;SDS011;5450;42.994;23.372;2022-11-20T01:16:04;3.67;;;1.40;;
10795;SDS011;5450;42.994;23.372;2022-11-20T01:18:33;3.87;;;1.50;;
10795;SDS011;5450;42.994;23.372;2022-11-20T01:21:02;1.30;;;1.13;;
10795;SDS011;5450;42.994;23.372;2022-11-20T01:23:31;1.83;;;1.17;;
10795;SDS011;5450;42.994;23.372;2022-11-20T01:26:00;2.17;;;1.33;;
10795;SDS011;5450;42.994;23.372;2022-11-20T01:28:28;2.20;;;1.47;;
10795;SDS011;5450;42.994;23.372;2022-11-20T01:30:55;2.00;;;1.00;;
10795;SDS011;5450;42.994;23.372;2022-11-20T01:33:26;3.30;;;1.30;;
10795;SDS011;5450;42.994;23.372;2022-11-20T01:36:02;2.83;;;1.40;;
10795;SDS011;5450;42.994;23.372;2022-11-20T01:38:33;4.00;;;1.57;;
10795;SDS011;5450;42.994;23.372;2022-11-20T01:41:00;1.77;;;1.50;;
10795;SDS011;5450;42.994;23.372;2022-11-20T01:43:27;1.37;;;1.27;;
10795;SDS011;5450;42.994;23.372;2022-11-20T01:45:58;1.53;;;1.43;;
10795;SDS011;5450;42.994;23.372;2022-11-20T01:48:32;1.60;;;1.27;;
10795;SDS011;5450;42.994;23.372;2022-11-20T01:51:07;1.70;;;1.40;;
10795;SDS011;5450;42.994;23.372;2022-11-20T01:53:42;2.23;;;2.03;;
10795;SDS011;5450;42.994;23.372;2022-11-20T01:56:10;3.40;;;2.93;;
10795;SDS011;5450;42.994;23.372;2022-11-20T01:58:41;2.73;;;1.60;;
10795;SDS011;5450;42.994;23.372;2022-11-20T02:01:12;2.17;;;1.67;;
10795;SDS011;5450;42.994;23.372;2022-11-20T02:03:40;2.10;;;1.57;;
10795;SDS011;5450;42.994;23.372;2022-11-20T02:06:11;3.10;;;1.70;;
10795;SDS011;5450;42.994;23.372;2022-11-20T02:08:43;4.47;;;2.00;;
10795;SDS011;5450;42.994;23.372;2022-11-20T02:11:10;1.77;;;1.40;;
10795;SDS011;5450;42.994;23.372;2022-11-20T02:13:39;2.87;;;1.40;;
10795;SDS011;5450;42.994;23.372;2022-11-20T02:16:09;2.90;;;1.37;;
10795;SDS011;5450;42.994;23.372;2022-11-20T02:18:38;1.50;;;1.40;;
10795;SDS011;5450;42.994;23.372;2022-11-20T02:21:07;3.03;;;1.27;;
10795;SDS011;5450;42.994;23.372;2022-11-20T02:23:52;1.67;;;1.57;;
10795;SDS011;5450;42.994;23.372;2022-11-20T02:26:26;3.23;;;1.93;;
10795;SDS011;5450;42.994;23.372;2022-11-20T02:28:55;1.43;;;1.33;;
10795;SDS011;5450;42.994;23.372;2022-11-20T02:31:23;1.83;;;1.50;;
10795;SDS011;5450;42.994;23.372;2022-11-20T02:33:53;2.77;;;1.60;;
10795;SDS011;5450;42.994;23.372;2022-11-20T02:36:21;1.30;;;1.30;;
10795;SDS011;5450;42.994;23.372;2022-11-20T02:38:52;1.27;;;1.13;;
10795;SDS011;5450;42.994;23.372;2022-11-20T02:41:20;1.13;;;1.03;;
10795;SDS011;5450;42.994;23.372;2022-11-20T02:43:49;1.50;;;1.40;;
10795;SDS011;5450;42.994;23.372;2022-11-20T02:46:16;2.63;;;1.43;;
10795;SDS011;5450;42.994;23.372;2022-11-20T02:48:43;1.93;;;1.23;;
10795;SDS011;5450;42.994;23.372;2022-11-20T02:51:10;1.80;;;1.03;;
10795;SDS011;5450;42.994;23.372;2022-11-20T02:53:37;2.67;;;1.20;;
10795;SDS011;5450;42.994;23.372;2022-11-20T02:56:06;3.63;;;1.73;;
10795;SDS011;5450;42.994;23.372;2022-11-20T02:58:33;1.30;;;1.20;;
10795;SDS011;5450;42.994;23.372;2022-11-20T03:01:00;1.77;;;1.47;;
10795;SDS011;5450;42.994;23.372;2022-11-20T03:03:27;1.87;;;1.27;;
10795;SDS011;5450;42.994;23.372;2022-11-20T03:05:55;3.40;;;1.13;;
10795;SDS011;5450;42.994;23.372;2022-11-20T03:08:25;1.43;;;1.30;;
10795;SDS011;5450;42.994;23.372;2022-11-20T03:10:52;4.07;;;1.30;;
10795;SDS011;5450;42.994;23.372;2022-11-20T03:13:20;2.67;;;1.50;;
10795;SDS011;5450;42.994;23.372;2022-11-20T03:15:48;2.30;;;1.63;;
10795;SDS011;5450;42.994;23.372;2022-11-20T03:18:16;1.50;;;1.40;;
10795;SDS011;5450;42.994;23.372;2022-11-20T03:20:44;2.30;;;1.17;;
10795;SDS011;5450;42.994;23.372;2022-11-20T03:23:11;2.67;;;1.70;;
10795;SDS011;5450;42.994;23.372;2022-11-20T03:25:38;1.60;;;1.50;;
10795;SDS011;5450;42.994;23.372;2022-11-20T03:28:05;5.03;;;1.67;;
10795;SDS011;5450;42.994;23.372;2022-11-20T03:30:34;2.43;;;1.40;;
10795;SDS011;5450;42.994;23.372;2022-11-20T03:33:01;1.43;;;1.23;;
10795;SDS011;5450;42.994;23.372;2022-11-20T03:35:28;1.63;;;1.23;;
10795;SDS011;5450;42.994;23.372;2022-11-20T03:37:56;1.77;;;1.30;;
10795;SDS011;5450;42.994;23.372;2022-11-20T03:40:24;1.20;;;1.10;;
10795;SDS011;5450;42.994;23.372;2022-11-20T03:42:51;2.13;;;1.17;;
10795;SDS011;5450;42.994;23.372;2022-11-20T03:45:18;1.73;;;1.20;;
10795;SDS011;5450;42.994;23.372;2022-11-20T03:47:46;1.43;;;1.20;;
10795;SDS011;5450;42.994;23.372;2022-11-20T03:50:13;0.97;;;0.93;;
10795;SDS011;5450;42.994;23.372;2022-11-20T03:52:40;1.10;;;0.97;;
10795;SDS011;5450;42.994;23.372;2022-11-20T03:55:08;1.73;;;1.20;;
10795;SDS011;5450;42.994;23.372;2022-11-20T03:57:35;1.43;;;1.13;;
10795;SDS011;5450;42.994;23.372;2022-11-20T04:00:03;0.90;;;0.90;;
10795;SDS011;5450;42.994;23.372;2022-11-20T04:02:31;3.33;;;1.27;;
10795;SDS011;5450;42.994;23.372;2022-11-20T04:05:00;2.50;;;1.37;;
10795;SDS011;5450;42.994;23.372;2022-11-20T04:07:27;1.90;;;1.17;;
10795;SDS011;5450;42.994;23.372;2022-11-20T04:09:54;2.63;;;1.67;;
10795;SDS011;5450;42.994;23.372;2022-11-20T04:12:24;1.10;;;0.97;;
10795;SDS011;5450;42.994;23.372;2022-11-20T04:14:52;3.83;;;3.47;;
10795;SDS011;5450;42.994;23.372;2022-11-20T04:17:20;1.30;;;1.20;;
10795;SDS011;5450;42.994;23.372;2022-11-20T04:19:47;1.47;;;1.17;;
10795;SDS011;5450;42.994;23.372;2022-11-20T04:22:15;2.50;;;1.37;;
10795;SDS011;5450;42.994;23.372;2022-11-20T04:24:42;1.63;;;1.53;;
10795;SDS011;5450;42.994;23.372;2022-11-20T04:27:09;2.37;;;1.40;;
10795;SDS011;5450;42.994;23.372;2022-11-20T04:29:36;1.93;;;1.47;;
10795;SDS011;5450;42.994;23.372;2022-11-20T04:32:03;1.03;;;1.03;;
10795;SDS011;5450;42.994;23.372;2022-11-20T04:34:31;2.03;;;1.30;;
10795;SDS011;5450;42.994;23.372;2022-11-20T04:36:58;2.27;;;1.20;;
10795;SDS011;5450;42.994;23.372;2022-11-20T04:39:31;1.37;;;1.17;;
10795;SDS011;5450;42.994;23.372;2022-11-20T04:41:58;3.07;;;1.83;;
10795;SDS011;5450;42.994;23.372;2022-11-20T04:44:39;1.90;;;1.10;;
10795;SDS011;5450;42.994;23.372;2022-11-20T04:47:06;4.00;;;1.40;;
10795;SDS011;5450;42.994;23.372;2022-11-20T04:49:33;1.30;;;1.20;;
10795;SDS011;5450;42.994;23.372;2022-11-20T04:52:00;2.00;;;1.60;;
10795;SDS011;5450;42.994;23.372;2022-11-20T04:54:27;2.73;;;1.20;;
10795;SDS011;5450;42.994;23.372;2022-11-20T04:56:55;1.07;;;0.90;;
10795;SDS011;5450;42.994;23.372;2022-11-20T04:59:22;2.20;;;1.23;;
10795;SDS011;5450;42.994;23.372;2022-11-20T05:01:49;0.90;;;0.90;;
10795;SDS011;5450;42.994;23.372;2022-11-20T05:04:16;5.13;;;1.37;;
10795;SDS011;5450;42.994;23.372;2022-11-20T05:06:44;3.53;;;1.13;;
10795;SDS011;5450;42.994;23.372;2022-11-20T05:09:11;2.23;;;1.17;;
10795;SDS011;5450;42.994;23.372;2022-11-20T05:14:35;0.80;;;0.80;;
10795;SDS011;5450;42.994;23.372;2022-11-20T05:17:03;1.37;;;0.87;;
10795;SDS011;5450;42.994;23.372;2022-11-20T05:19:31;1.50;;;1.30;;
10795;SDS011;5450;42.994;23.372;2022-11-20T05:21:59;0.90;;;0.90;;
10795;SDS011;5450;42.994;23.372;2022-11-20T05:24:27;1.00;;;0.90;;
10795;SDS011;5450;42.994;23.372;2022-11-20T05:26:55;1.73;;;1.13;;
10795;SDS011;5450;42.994;23.372;2022-11-20T05:29:24;0.63;;;0.63;;
10795;SDS011;5450;42.994;23.372;2022-11-20T05:31:51;1.33;;;0.90;;
10795;SDS011;5450;42.994;23.372;2022-11-20T05:34:18;0.77;;;0.77;;
10795;SDS011;5450;42.994;23.372;2022-11-20T05:36:45;1.13;;;1.03;;
10795;SDS011;5450;42.994;23.372;2022-11-20T05:39:12;1.23;;;0.80;;
10795;SDS011;5450;42.994;23.372;2022-11-20T05:41:39;1.00;;;0.80;;
10795;SDS011;5450;42.994;23.372;2022-11-20T05:44:06;0.70;;;0.70;;
10795;SDS011;5450;42.994;23.372;2022-11-20T05:46:34;1.80;;;1.23;;
10795;SDS011;5450;42.994;23.372;2022-11-20T05:49:01;0.90;;;0.67;;
10795;SDS011;5450;42.994;23.372;2022-11-20T05:51:30;1.40;;;1.13;;
10795;SDS011;5450;42.994;23.372;2022-11-20T05:53:56;0.80;;;0.80;;
10795;SDS011;5450;42.994;23.372;2022-11-20T05:56:24;1.70;;;0.80;;
10795;SDS011;5450;42.994;23.372;2022-11-20T05:58:51;1.60;;;0.60;;
10795;SDS011;5450;42.994;23.372;2022-11-20T06:01:18;2.17;;;0.90;;
10795;SDS011;5450;42.994;23.372;2022-11-20T06:03:48;1.63;;;1.07;;
10795;SDS011;5450;42.994;23.372;2022-11-20T06:06:16;1.53;;;0.77;;
10795;SDS011;5450;42.994;23.372;2022-11-20T06:08:43;1.10;;;1.00;;
10795;SDS011;5450;42.994;23.372;2022-11-20T06:11:11;1.00;;;1.00;;
10795;SDS011;5450;42.994;23.372;2022-11-20T06:13:39;1.60;;;1.50;;
10795;SDS011;5450;42.994;23.372;2022-11-20T06:16:07;0.90;;;0.90;;
10795;SDS011;5450;42.994;23.372;2022-11-20T06:18:34;1.63;;;1.53;;
10795;SDS011;5450;42.994;23.372;2022-11-20T06:21:04;1.33;;;1.00;;
10795;SDS011;5450;42.994;23.372;2022-11-20T06:23:34;5.00;;;2.40;;
10795;SDS011;5450;42.994;23.372;2022-11-20T06:26:02;1.43;;;1.37;;
10795;SDS011;5450;42.994;23.372;2022-11-20T06:28:30;1.97;;;1.60;;
10795;SDS011;5450;42.994;23.372;2022-11-20T06:30:58;2.03;;;1.80;;
10795;SDS011;5450;42.994;23.372;2022-11-20T06:33:25;2.90;;;2.70;;
10795;SDS011;5450;42.994;23.372;2022-11-20T06:35:55;2.33;;;2.23;;
10795;SDS011;5450;42.994;23.372;2022-11-20T06:38:24;2.47;;;2.27;;
10795;SDS011;5450;42.994;23.372;2022-11-20T06:40:51;2.23;;;2.13;;
10795;SDS011;5450;42.994;23.372;2022-11-20T06:43:19;1.87;;;1.77;;
10795;SDS011;5450;42.994;23.372;2022-11-20T06:45:46;2.20;;;2.10;;
10795;SDS011;5450;42.994;23.372;2022-11-20T06:48:12;2.80;;;2.60;;
10795;SDS011;5450;42.994;23.372;2022-11-20T06:50:40;3.07;;;2.40;;
10795;SDS011;5450;42.994;23.372;2022-11-20T06:53:07;3.53;;;2.83;;
10795;SDS011;5450;42.994;23.372;2022-11-20T06:55:35;2.80;;;2.60;;
10795;SDS011;5450;42.994;23.372;2022-11-20T06:58:02;3.43;;;3.13;;
10795;SDS011;5450;42.994;23.372;2022-11-20T07:00:29;3.97;;;3.70;;
10795;SDS011;5450;42.994;23.372;2022-11-20T07:03:06;3.40;;;3.20;;
10795;SDS011;5450;42.994;23.372;2022-11-20T07:05:36;3.40;;;3.10;;
10795;SDS011;5450;42.994;23.372;2022-11-20T07:08:06;4.50;;;4.20;;
10795;SDS011;5450;42.994;23.372;2022-11-20T07:10:36;3.60;;;3.30;;
10795;SDS011;5450;42.994;23.372;2022-11-20T07:13:05;4.53;;;4.20;;
10795;SDS011;5450;42.994;23.372;2022-11-20T07:15:32;4.50;;;4.20;;
10795;SDS011;5450;42.994;23.372;2022-11-20T07:17:59;4.97;;;4.57;;
10795;SDS011;5450;42.994;23.372;2022-11-20T07:20:26;4.20;;;3.90;;
10795;SDS011;5450;42.994;23.372;2022-11-20T07:22:54;4.33;;;4.03;;
10795;SDS011;5450;42.994;23.372;2022-11-20T07:25:21;4.53;;;4.03;;
10795;SDS011;5450;42.994;23.372;2022-11-20T07:27:50;5.67;;;4.77;;
10795;SDS011;5450;42.994;23.372;2022-11-20T07:30:18;4.80;;;4.40;;
10795;SDS011;5450;42.994;23.372;2022-11-20T07:32:46;4.67;;;4.37;;
10795;SDS011;5450;42.994;23.372;2022-11-20T07:35:13;5.17;;;4.77;;
10795;SDS011;5450;42.994;23.372;2022-11-20T07:37:40;4.50;;;4.17;;
10795;SDS011;5450;42.994;23.372;2022-11-20T07:40:08;5.00;;;4.60;;
10795;SDS011;5450;42.994;23.372;2022-11-20T07:42:36;4.23;;;3.93;;
10795;SDS011;5450;42.994;23.372;2022-11-20T07:45:05;5.00;;;4.60;;
10795;SDS011;5450;42.994;23.372;2022-11-20T07:47:34;6.57;;;5.87;;
10795;SDS011;5450;42.994;23.372;2022-11-20T07:50:04;5.70;;;5.20;;
10795;SDS011;5450;42.994;23.372;2022-11-20T07:52:38;5.30;;;4.90;;
10795;SDS011;5450;42.994;23.372;2022-11-20T07:55:08;5.17;;;4.77;;
10795;SDS011;5450;42.994;23.372;2022-11-20T07:57:37;5.33;;;4.93;;
10795;SDS011;5450;42.994;23.372;2022-11-20T08:00:08;5.80;;;5.27;;
10795;SDS011;5450;42.994;23.372;2022-11-20T08:02:36;5.63;;;5.13;;
10795;SDS011;5450;42.994;23.372;2022-11-20T08:05:04;4.90;;;4.50;;
10795;SDS011;5450;42.994;23.372;2022-11-20T08:07:35;5.33;;;4.93;;
10795;SDS011;5450;42.994;23.372;2022-11-20T08:10:05;5.07;;;4.70;;
10795;SDS011;5450;42.994;23.372;2022-11-20T08:12:34;6.23;;;5.63;;
10795;SDS011;5450;42.994;23.372;2022-11-20T08:15:20;5.17;;;4.77;;
10795;SDS011;5450;42.994;23.372;2022-11-20T08:17:49;5.93;;;5.43;;
10795;SDS011;5450;42.994;23.372;2022-11-20T08:20:16;6.17;;;5.67;;
10795;SDS011;5450;42.994;23.372;2022-11-20T08:22:43;5.97;;;5.50;;
10795;SDS011;5450;42.994;23.372;2022-11-20T08:25:15;5.63;;;5.23;;
10795;SDS011;5450;42.994;23.372;2022-11-20T08:27:45;5.87;;;5.30;;
10795;SDS011;5450;42.994;23.372;2022-11-20T08:33:20;5.60;;;5.20;;
10795;SDS011;5450;42.994;23.372;2022-11-20T08:35:53;5.30;;;4.90;;
10795;SDS011;5450;42.994;23.372;2022-11-20T08:38:25;5.60;;;5.17;;
10795;SDS011;5450;42.994;23.372;2022-11-20T08:40:56;5.63;;;5.23;;
10795;SDS011;5450;42.994;23.372;2022-11-20T08:43:41;6.30;;;5.80;;
10795;SDS011;5450;42.994;23.372;2022-11-20T08:46:13;5.70;;;5.20;;
10795;SDS011;5450;42.994;23.372;2022-11-20T08:48:43;5.63;;;5.13;;
10795;SDS011;5450;42.994;23.372;2022-11-20T08:51:11;5.47;;;5.07;;
10795;SDS011;5450;42.994;23.372;2022-11-20T08:53:40;5.47;;;5.07;;
10795;SDS011;5450;42.994;23.372;2022-11-20T08:59:10;6.10;;;5.60;;
10795;SDS011;5450;42.994;23.372;2022-11-20T09:01:38;5.93;;;5.47;;
10795;SDS011;5450;42.994;23.372;2022-11-20T09:04:05;7.73;;;7.03;;
10795;SDS011;5450;42.994;23.372;2022-11-20T09:06:32;5.27;;;4.87;;
10795;SDS011;5450;42.994;23.372;2022-11-20T09:09:00;4.83;;;4.50;;
10795;SDS011;5450;42.994;23.372;2022-11-20T09:11:27;4.90;;;4.47;;
10795;SDS011;5450;42.994;23.372;2022-11-20T09:13:56;5.03;;;4.63;;
10795;SDS011;5450;42.994;23.372;2022-11-20T09:16:23;5.43;;;5.03;;
10795;SDS011;5450;42.994;23.372;2022-11-20T09:18:55;5.60;;;5.20;;
10795;SDS011;5450;42.994;23.372;2022-11-20T09:21:27;4.77;;;4.33;;
10795;SDS011;5450;42.994;23.372;2022-11-20T09:23:54;4.90;;;4.50;;
10795;SDS011;5450;42.994;23.372;2022-11-20T09:26:22;4.33;;;3.93;;
10795;SDS011;5450;42.994;23.372;2022-11-20T09:28:52;4.50;;;4.20;;
10795;SDS011;5450;42.994;23.372;2022-11-20T09:31:21;4.43;;;4.03;;
10795;SDS011;5450;42.994;23.372;2022-11-20T09:33:51;5.00;;;4.50;;
10795;SDS011;5450;42.994;23.372;2022-11-20T09:36:20;4.70;;;4.30;;
10795;SDS011;5450;42.994;23.372;2022-11-20T09:38:47;4.70;;;4.30;;
10795;SDS011;5450;42.994;23.372;2022-11-20T09:41:21;4.50;;;4.20;;
10795;SDS011;5450;42.994;23.372;2022-11-20T09:44:05;6.23;;;4.17;;
10795;SDS011;5450;42.994;23.372;2022-11-20T09:46:46;4.40;;;4.10;;
10795;SDS011;5450;42.994;23.372;2022-11-20T09:49:23;4.37;;;4.07;;
10795;SDS011;5450;42.994;23.372;2022-11-20T09:52:05;4.93;;;4.57;;
10795;SDS011;5450;42.994;23.372;2022-11-20T09:54:43;5.77;;;5.30;;
10795;SDS011;5450;42.994;23.372;2022-11-20T09:57:11;5.83;;;5.33;;
10795;SDS011;5450;42.994;23.372;2022-11-20T09:59:41;5.63;;;5.23;;
10795;SDS011;5450;42.994;23.372;2022-11-20T10:02:16;5.57;;;5.17;;
10795;SDS011;5450;42.994;23.372;2022-11-20T10:04:55;5.97;;;5.47;;
10795;SDS011;5450;42.994;23.372;2022-11-20T10:07:29;7.30;;;6.70;;
10795;SDS011;5450;42.994;23.372;2022-11-20T10:09:59;6.47;;;5.97;;
10795;SDS011;5450;42.994;23.372;2022-11-20T10:12:31;8.33;;;7.53;;
10795;SDS011;5450;42.994;23.372;2022-11-20T10:15:14;7.00;;;6.47;;
10795;SDS011;5450;42.994;23.372;2022-11-20T10:17:58;6.63;;;6.03;;
10795;SDS011;5450;42.994;23.372;2022-11-20T10:20:40;7.20;;;6.53;;
10795;SDS011;5450;42.994;23.372;2022-11-20T10:23:22;8.83;;;8.07;;
10795;SDS011;5450;42.994;23.372;2022-11-20T10:26:05;13.30;;;12.10;;
10795;SDS011;5450;42.994;23.372;2022-11-20T10:28:46;10.93;;;10.10;;
10795;SDS011;5450;42.994;23.372;2022-11-20T10:31:27;8.27;;;7.57;;
10795;SDS011;5450;42.994;23.372;2022-11-20T10:33:58;7.30;;;6.00;;
10795;SDS011;5450;42.994;23.372;2022-11-20T10:36:33;6.20;;;5.70;;
10795;SDS011;5450;42.994;23.372;2022-11-20T10:39:10;6.60;;;6.10;;
10795;SDS011;5450;42.994;23.372;2022-11-20T10:41:46;7.03;;;6.53;;
10795;SDS011;5450;42.994;23.372;2022-11-20T10:44:26;6.07;;;5.60;;
10795;SDS011;5450;42.994;23.372;2022-11-20T10:47:13;9.47;;;8.47;;
10795;SDS011;5450;42.994;23.372;2022-11-20T10:49:41;8.80;;;8.00;;
10795;SDS011;5450;42.994;23.372;2022-11-20T10:52:12;7.27;;;6.77;;
10795;SDS011;5450;42.994;23.372;2022-11-20T10:54:49;9.30;;;8.53;;
10795;SDS011;5450;42.994;23.372;2022-11-20T10:57:29;6.90;;;6.33;;
10795;SDS011;5450;42.994;23.372;2022-11-20T11:00:10;6.50;;;5.97;;
10795;SDS011;5450;42.994;23.372;2022-11-20T11:02:39;5.33;;;4.93;;
10795;SDS011;5450;42.994;23.372;2022-11-20T11:05:18;5.53;;;5.13;;
10795;SDS011;5450;42.994;23.372;2022-11-20T11:07:52;5.77;;;5.17;;
10795;SDS011;5450;42.994;23.372;2022-11-20T11:10:24;5.30;;;4.97;;
10795;SDS011;5450;42.994;23.372;2022-11-20T11:12:54;6.43;;;5.80;;
10795;SDS011;5450;42.994;23.372;2022-11-20T11:15:25;9.00;;;8.17;;
10795;SDS011;5450;42.994;23.372;2022-11-20T11:17:54;8.70;;;8.07;;
10795;SDS011;5450;42.994;23.372;2022-11-20T11:20:22;11.63;;;10.60;;
10795;SDS011;5450;42.994;23.372;2022-11-20T11:22:51;7.83;;;7.23;;
10795;SDS011;5450;42.994;23.372;2022-11-20T11:25:25;7.80;;;7.20;;
10795;SDS011;5450;42.994;23.372;2022-11-20T11:27:55;7.10;;;6.60;;
10795;SDS011;5450;42.994;23.372;2022-11-20T11:30:26;7.53;;;6.73;;
10795;SDS011;5450;42.994;23.372;2022-11-20T11:33:05;8.03;;;7.30;;
10795;SDS011;5450;42.994;23.372;2022-11-20T11:35:38;8.17;;;7.47;;
10795;SDS011;5450;42.994;23.372;2022-11-20T11:38:14;8.07;;;7.30;;
10795;SDS011;5450;42.994;23.372;2022-11-20T11:40:45;7.73;;;7.13;;
10795;SDS011;5450;42.994;23.372;2022-11-20T11:43:26;7.17;;;6.57;;
10795;SDS011;5450;42.994;23.372;2022-11-20T11:46:24;8.73;;;8.03;;
10795;SDS011;5450;42.994;23.372;2022-11-20T11:48:55;10.13;;;9.03;;
10795;SDS011;5450;42.994;23.372;2022-11-20T11:51:25;9.30;;;8.50;;
10795;SDS011;5450;42.994;23.372;2022-11-20T11:53:56;9.53;;;8.63;;
10795;SDS011;5450;42.994;23.372;2022-11-20T11:56:28;9.93;;;8.97;;
10795;SDS011;5450;42.994;23.372;2022-11-20T11:59:00;9.00;;;8.13;;
10795;SDS011;5450;42.994;23.372;2022-11-20T12:01:41;9.97;;;9.03;;
10795;SDS011;5450;42.994;23.372;2022-11-20T12:04:13;12.90;;;10.17;;
10795;SDS011;5450;42.994;23.372;2022-11-20T12:06:48;27.80;;;18.57;;
10795;SDS011;5450;42.994;23.372;2022-11-20T12:09:20;13.80;;;11.60;;
10795;SDS011;5450;42.994;23.372;2022-11-20T12:11:55;11.57;;;10.07;;
10795;SDS011;5450;42.994;23.372;2022-11-20T12:14:33;14.57;;;13.07;;
10795;SDS011;5450;42.994;23.372;2022-11-20T12:17:03;21.90;;;17.47;;
10795;SDS011;5450;42.994;23.372;2022-11-20T12:19:31;14.40;;;12.13;;
10795;SDS011;5450;42.994;23.372;2022-11-20T12:22:02;5.80;;;5.27;;
10795;SDS011;5450;42.994;23.372;2022-11-20T12:24:44;13.47;;;11.73;;
10795;SDS011;5450;42.994;23.372;2022-11-20T12:30:22;9.57;;;8.50;;
10795;SDS011;5450;42.994;23.372;2022-11-20T12:36:07;11.63;;;9.87;;
10795;SDS011;5450;42.994;23.372;2022-11-20T12:38:51;18.83;;;13.90;;
10795;SDS011;5450;42.994;23.372;2022-11-20T12:41:43;14.17;;;10.83;;
10795;SDS011;5450;42.994;23.372;2022-11-20T12:44:52;11.37;;;10.23;;
10795;SDS011;5450;42.994;23.372;2022-11-20T12:50:57;10.67;;;9.60;;
10795;SDS011;5450;42.994;23.372;2022-11-20T12:53:49;12.23;;;9.87;;
10795;SDS011;5450;42.994;23.372;2022-11-20T12:56:27;9.77;;;8.87;;
10795;SDS011;5450;42.994;23.372;2022-11-20T12:59:08;12.67;;;11.03;;
10795;SDS011;5450;42.994;23.372;2022-11-20T13:01:52;12.63;;;11.27;;
10795;SDS011;5450;42.994;23.372;2022-11-20T13:04:27;12.83;;;11.53;;
10795;SDS011;5450;42.994;23.372;2022-11-20T13:07:13;17.03;;;13.37;;
10795;SDS011;5450;42.994;23.372;2022-11-20T13:09:43;16.37;;;13.40;;
10795;SDS011;5450;42.994;23.372;2022-11-20T13:12:15;14.27;;;12.87;;
10795;SDS011;5450;42.994;23.372;2022-11-20T13:14:51;15.17;;;13.13;;
10795;SDS011;5450;42.994;23.372;2022-11-20T13:17:30;16.43;;;13.80;;
10795;SDS011;5450;42.994;23.372;2022-11-20T13:20:11;14.97;;;12.87;;
10795;SDS011;5450;42.994;23.372;2022-11-20T13:22:44;18.30;;;13.57;;
10795;SDS011;5450;42.994;23.372;2022-11-20T13:25:22;14.47;;;12.73;;
10795;SDS011;5450;42.994;23.372;2022-11-20T13:27:50;13.20;;;11.80;;
10795;SDS011;5450;42.994;23.372;2022-11-20T13:30:19;13.90;;;12.50;;
10795;SDS011;5450;42.994;23.372;2022-11-20T13:32:49;12.43;;;11.17;;
10795;SDS011;5450;42.994;23.372;2022-11-20T13:35:25;15.00;;;12.13;;
10795;SDS011;5450;42.994;23.372;2022-11-20T13:38:04;13.53;;;12.23;;
10795;SDS011;5450;42.994;23.372;2022-11-20T13:40:36;15.83;;;14.23;;
10795;SDS011;5450;42.994;23.372;2022-11-20T13:43:08;14.13;;;11.87;;
10795;SDS011;5450;42.994;23.372;2022-11-20T13:45:42;14.23;;;11.80;;
10795;SDS011;5450;42.994;23.372;2022-11-20T13:48:19;13.60;;;12.20;;
10795;SDS011;5450;42.994;23.372;2022-11-20T13:50:53;14.60;;;12.87;;
10795;SDS011;5450;42.994;23.372;2022-11-20T13:53:44;10.83;;;9.07;;
10795;SDS011;5450;42.994;23.372;2022-11-20T13:56:34;13.30;;;12.00;;
10795;SDS011;5450;42.994;23.372;2022-11-20T13:59:10;12.60;;;11.03;;
10795;SDS011;5450;42.994;23.372;2022-11-20T14:01:50;12.10;;;10.90;;
10795;SDS011;5450;42.994;23.372;2022-11-20T14:04:19;11.47;;;10.40;;
10795;SDS011;5450;42.994;23.372;2022-11-20T14:06:53;10.97;;;9.97;;
10795;SDS011;5450;42.994;23.372;2022-11-20T14:09:25;11.43;;;10.43;;
10795;SDS011;5450;42.994;23.372;2022-11-20T14:11:53;11.17;;;9.70;;
10795;SDS011;5450;42.994;23.372;2022-11-20T14:14:20;18.17;;;15.60;;
10795;SDS011;5450;42.994;23.372;2022-11-20T14:16:51;15.30;;;13.50;;
10795;SDS011;5450;42.994;23.372;2022-11-20T14:19:27;12.90;;;11.57;;
10795;SDS011;5450;42.994;23.372;2022-11-20T14:22:10;12.43;;;11.20;;
10795;SDS011;5450;42.994;23.372;2022-11-20T14:24:44;12.17;;;10.67;;
10795;SDS011;5450;42.994;23.372;2022-11-20T14:27:12;12.83;;;11.63;;
10795;SDS011;5450;42.994;23.372;2022-11-20T14:29:41;13.00;;;10.80;;
10795;SDS011;5450;42.994;23.372;2022-11-20T14:32:09;12.57;;;11.27;;
10795;SDS011;5450;42.994;23.372;2022-11-20T14:34:39;10.93;;;9.93;;
10795;SDS011;5450;42.994;23.372;2022-11-20T14:37:10;11.07;;;10.10;;
10795;SDS011;5450;42.994;23.372;2022-11-20T14:39:40;11.57;;;10.37;;
10795;SDS011;5450;42.994;23.372;2022-11-20T14:42:15;13.03;;;11.67;;
10795;SDS011;5450;42.994;23.372;2022-11-20T14:44:44;15.10;;;12.83;;
10795;SDS011;5450;42.994;23.372;2022-11-20T14:47:13;14.90;;;13.27;;
10795;SDS011;5450;42.994;23.372;2022-11-20T14:49:46;15.00;;;13.40;;
10795;SDS011;5450;42.994;23.372;2022-11-20T14:52:15;16.57;;;14.87;;
10795;SDS011;5450;42.994;23.372;2022-11-20T14:54:43;16.47;;;14.77;;
10795;SDS011;5450;42.994;23.372;2022-11-20T14:57:20;16.10;;;14.40;;
10795;SDS011;5450;42.994;23.372;2022-11-20T14:59:49;16.60;;;14.90;;
10795;SDS011;5450;42.994;23.372;2022-11-20T15:02:16;15.50;;;13.90;;
10795;SDS011;5450;42.994;23.372;2022-11-20T15:04:44;15.03;;;13.53;;
10795;SDS011;5450;42.994;23.372;2022-11-20T15:07:22;17.53;;;15.50;;
10795;SDS011;5450;42.994;23.372;2022-11-20T15:09:59;17.03;;;15.27;;
10795;SDS011;5450;42.994;23.372;2022-11-20T15:12:28;18.37;;;14.93;;
10795;SDS011;5450;42.994;23.372;2022-11-20T15:14:56;17.27;;;15.47;;
10795;SDS011;5450;42.994;23.372;2022-11-20T15:17:24;14.53;;;12.93;;
10795;SDS011;5450;42.994;23.372;2022-11-20T15:19:53;14.57;;;13.03;;
10795;SDS011;5450;42.994;23.372;2022-11-20T15:22:23;13.43;;;12.07;;
10795;SDS011;5450;42.994;23.372;2022-11-20T15:24:50;14.03;;;12.63;;